createdAt,value
2019-01-16T00:04:49.326Z,67.88
2019-01-16T00:10:06.275Z,68.49
2019-01-16T00:15:26.582Z,67.96
2019-01-16T00:20:36.804Z,68.37
2019-01-16T00:25:53.577Z,68.01
2019-01-16T00:31:03.872Z,67.98
2019-01-16T00:36:18.168Z,68.03
2019-01-16T00:41:31.798Z,66.94
2019-01-16T00:46:55.761Z,67.53
2019-01-16T00:52:03.174Z,66.75
2019-01-16T00:57:19.570Z,67.99
2019-01-16T01:02:35.826Z,67.46
2019-01-16T01:07:55.378Z,67.77
2019-01-16T01:13:03.953Z,67.53
2019-01-16T01:18:15.678Z,68.16
2019-01-16T01:23:23.768Z,67.87
2019-01-16T01:28:32.742Z,67.80
2019-01-16T01:33:48.955Z,68.17
2019-01-16T01:39:08.590Z,67.28
2019-01-16T01:44:32.506Z,67.38
2019-01-16T01:49:40.544Z,67.30
2019-01-16T01:54:57.087Z,67.35
2019-01-16T02:00:13.509Z,67.91
2019-01-16T02:05:27.488Z,68.19
2019-01-16T02:10:35.130Z,67.28
2019-01-16T02:15:43.041Z,69.04
2019-01-16T02:20:54.600Z,68.73
2019-01-16T02:26:18.523Z,68.02
2019-01-16T02:31:25.810Z,68.37
2019-01-16T02:36:39.219Z,67.67
2019-01-16T02:47:20.041Z,68.26
2019-01-16T02:52:33.279Z,69.49
2019-01-16T02:57:53.550Z,68.87
2019-01-16T03:03:01.734Z,67.79
2019-01-16T03:08:12.339Z,67.44
2019-01-16T03:13:20.342Z,67.95
2019-01-16T03:18:44.988Z,69.59
2019-01-16T03:23:52.747Z,69.45
2019-01-16T03:29:12.866Z,69.90
2019-01-16T03:34:24.867Z,69.90
2019-01-16T03:39:33.331Z,70.77
2019-01-16T03:44:50.417Z,70.11
2019-01-16T03:50:14.647Z,69.67
2019-01-16T03:55:22.839Z,69.08
2019-01-16T04:00:45.517Z,68.84
2019-01-16T04:06:06.753Z,68.98
2019-01-16T04:11:14.392Z,69.08
2019-01-16T04:16:22.258Z,69.67
2019-01-16T04:21:33.312Z,68.38
2019-01-16T04:26:47.193Z,68.38
2019-01-16T04:31:55.129Z,67.01
2019-01-16T04:37:09.355Z,67.28
2019-01-16T04:42:28.159Z,66.55
2019-01-16T04:47:42.518Z,66.14
2019-01-16T04:52:50.663Z,66.64
2019-01-16T04:57:58.285Z,67.00
2019-01-16T05:03:17.659Z,66.17
2019-01-16T05:08:28.437Z,65.76
2019-01-16T05:13:42.176Z,65.66
2019-01-16T05:19:06.494Z,65.01
2019-01-16T05:24:20.757Z,64.99
2019-01-16T05:29:34.284Z,64.91
2019-01-16T05:34:44.667Z,64.24
2019-01-16T05:40:04.202Z,63.72
2019-01-16T05:45:22.052Z,63.95
2019-01-16T05:50:36.512Z,63.01
2019-01-16T05:55:44.462Z,62.57
2019-01-16T06:01:08.482Z,62.08
2019-01-16T06:06:31.458Z,61.28
2019-01-16T06:11:52.059Z,60.92
2019-01-16T06:17:02.590Z,61.80
2019-01-16T06:22:20.246Z,61.85
2019-01-16T06:27:44.536Z,62.55
2019-01-16T06:33:10.276Z,62.18
2019-01-16T06:38:33.252Z,61.99
2019-01-16T06:43:58.247Z,62.06
2019-01-16T06:49:09.622Z,61.60
2019-01-16T06:54:20.708Z,62.53
2019-01-16T06:59:28.577Z,61.46
2019-01-16T07:04:54.959Z,61.45
2019-01-16T07:10:18.606Z,61.00
2019-01-16T07:15:42.412Z,62.95
2019-01-16T07:21:06.808Z,63.07
2019-01-16T07:26:14.517Z,62.69
2019-01-16T07:31:34.746Z,62.04
2019-01-16T07:36:43.189Z,62.48
2019-01-16T07:42:05.302Z,63.23
2019-01-16T07:47:14.558Z,63.06
2019-01-16T07:52:25.488Z,63.53
2019-01-16T07:57:43.009Z,60.94
2019-01-16T08:03:06.577Z,62.34
2019-01-16T08:08:14.652Z,62.75
2019-01-16T08:13:25.599Z,62.46
2019-01-16T08:18:37.728Z,61.25
2019-01-16T08:24:02.500Z,60.53
2019-01-16T08:29:11.203Z,62.57
2019-01-16T08:34:19.764Z,61.10
2019-01-16T08:39:36.752Z,60.82
2019-01-16T08:44:51.482Z,60.85
2019-01-16T08:50:08.443Z,60.34
2019-01-16T08:55:16.950Z,60.95
2019-01-16T09:00:34.903Z,60.29
2019-01-16T09:05:52.170Z,60.25
2019-01-16T09:11:12.505Z,60.58
2019-01-16T09:16:30.775Z,61.19
2019-01-16T09:21:38.625Z,61.03
2019-01-16T09:26:46.612Z,61.10
2019-01-16T09:32:11.515Z,61.12
2019-01-16T09:37:29.390Z,59.83
2019-01-16T09:42:44.242Z,61.50
2019-01-16T09:48:06.743Z,61.81
2019-01-16T09:53:30.594Z,61.09
2019-01-16T09:58:51.265Z,59.84
2019-01-16T10:04:16.287Z,60.47
2019-01-16T10:09:43.974Z,60.25
2019-01-16T10:14:52.150Z,60.17
2019-01-16T10:20:16.477Z,60.13
2019-01-16T10:25:28.240Z,59.43
2019-01-16T10:30:42.972Z,59.35
2019-01-16T10:35:54.677Z,59.54
2019-01-16T10:41:06.923Z,59.41
2019-01-16T10:46:23.637Z,59.62
2019-01-16T10:51:42.972Z,58.98
2019-01-16T10:56:55.523Z,59.39
2019-01-16T11:02:03.356Z,59.03
2019-01-16T11:07:14.337Z,58.75
2019-01-16T11:12:38.605Z,59.96
2019-01-16T11:18:03.369Z,59.56
2019-01-16T11:23:27.674Z,58.63
2019-01-16T11:28:44.127Z,59.40
2019-01-16T11:34:05.674Z,58.83
2019-01-16T11:39:16.324Z,59.25
2019-01-16T11:44:24.562Z,58.78
2019-01-16T11:49:32.870Z,57.55
2019-01-16T11:54:52.106Z,57.96
2019-01-16T12:00:09.820Z,57.89
2019-01-16T12:05:36.519Z,57.94
2019-01-16T12:10:48.642Z,57.92
2019-01-16T12:16:06.925Z,57.94
2019-01-16T12:21:26.520Z,57.97
2019-01-16T12:26:52.156Z,58.55
2019-01-16T12:32:06.690Z,57.88
2019-01-16T12:37:35.019Z,58.13
2019-01-16T12:42:52.102Z,58.76
2019-01-16T12:48:11.059Z,58.23
2019-01-16T12:53:39.486Z,58.06
2019-01-16T12:59:00.636Z,57.09
2019-01-16T13:04:20.409Z,58.46
2019-01-16T13:09:29.068Z,58.16
2019-01-16T13:14:43.024Z,57.43
2019-01-16T13:19:52.400Z,57.73
2019-01-16T13:25:03.383Z,56.18
2019-01-16T13:30:30.621Z,56.76
2019-01-16T13:35:38.901Z,56.88
2019-01-16T13:41:03.020Z,56.98
2019-01-16T13:46:24.635Z,56.42
2019-01-16T13:51:50.756Z,57.78
2019-01-16T13:57:01.492Z,56.49
2019-01-16T14:02:25.982Z,57.26
2019-01-16T14:07:49.648Z,57.20
2019-01-16T14:13:09.803Z,56.83
2019-01-16T14:18:36.380Z,57.59
2019-01-16T14:23:43.915Z,57.79
2019-01-16T14:29:11.808Z,58.20
2019-01-16T14:34:41.474Z,58.41
2019-01-16T14:39:52.926Z,57.81
2019-01-16T14:45:04.672Z,57.61
2019-01-16T14:50:15.232Z,57.64
2019-01-16T14:55:39.446Z,57.73
2019-01-16T15:01:06.998Z,57.38
2019-01-16T15:06:18.352Z,58.28
2019-01-16T15:11:31.376Z,57.74
2019-01-16T15:16:52.560Z,57.60
2019-01-16T15:22:06.443Z,57.11
2019-01-16T15:27:26.892Z,58.14
2019-01-16T15:32:52.393Z,57.11
2019-01-16T15:38:02.785Z,56.60
2019-01-16T15:43:17.080Z,56.75
2019-01-16T15:48:39.892Z,57.12
2019-01-16T15:54:05.185Z,57.19
2019-01-16T15:59:24.967Z,57.39
2019-01-16T16:04:33.372Z,57.46
2019-01-16T16:09:47.072Z,57.41
2019-01-16T16:14:54.700Z,57.43
2019-01-16T16:20:19.222Z,58.21
2019-01-16T16:25:38.721Z,58.02
2019-01-16T16:31:02.725Z,57.95
2019-01-16T16:36:19.039Z,57.90
2019-01-16T16:41:35.608Z,57.26
2019-01-16T16:46:55.846Z,57.90
2019-01-16T16:52:25.783Z,57.19
2019-01-16T16:57:46.030Z,57.47
2019-01-16T17:02:57.265Z,56.92
2019-01-16T17:08:17.268Z,56.96
2019-01-16T17:13:34.765Z,57.07
2019-01-16T17:18:47.286Z,57.26
2019-01-16T17:24:04.112Z,55.99
2019-01-16T17:29:17.943Z,57.12
2019-01-16T17:34:40.444Z,56.52
2019-01-16T17:39:57.063Z,56.33
2019-01-16T17:45:10.049Z,55.80
2019-01-16T17:50:34.283Z,55.60
2019-01-16T17:55:43.582Z,55.27
2019-01-16T18:00:50.912Z,56.34
2019-01-16T18:05:58.285Z,56.41
2019-01-16T18:11:11.860Z,55.58
2019-01-16T18:16:21.211Z,55.10
2019-01-16T18:21:29.133Z,54.50
2019-01-16T18:26:39.693Z,54.54
2019-01-16T18:31:56.808Z,55.17
2019-01-16T18:37:04.699Z,53.52
2019-01-16T18:42:13.606Z,53.43
2019-01-16T18:47:24.274Z,53.62
2019-01-16T18:52:38.096Z,53.55
2019-01-16T18:57:56.173Z,53.40
2019-01-16T19:03:03.537Z,53.60
2019-01-16T19:08:13.808Z,54.24
2019-01-16T19:13:39.295Z,53.49
2019-01-16T19:19:02.989Z,53.20
2019-01-16T19:24:19.535Z,53.57
2019-01-16T19:29:40.619Z,52.92
2019-01-16T19:35:04.574Z,53.01
2019-01-16T19:40:16.342Z,53.23
2019-01-16T19:45:41.612Z,52.35
2019-01-16T19:50:54.357Z,52.34
2019-01-16T19:56:02.338Z,52.19
2019-01-16T20:01:09.761Z,53.00
2019-01-16T20:06:26.146Z,52.57
2019-01-16T20:11:51.699Z,52.82
2019-01-16T20:17:07.899Z,52.17
2019-01-16T20:22:32.504Z,52.43
2019-01-16T20:27:40.164Z,52.91
2019-01-16T20:32:50.550Z,52.55
2019-01-16T20:37:58.430Z,52.41
2019-01-16T20:43:06.301Z,53.05
2019-01-16T20:48:19.711Z,53.07
2019-01-16T20:53:36.818Z,53.11
2019-01-16T20:58:54.191Z,52.44
2019-01-16T21:04:18.342Z,52.79
2019-01-16T21:09:36.837Z,52.48
2019-01-16T21:14:53.590Z,52.66
2019-01-16T21:20:08.687Z,52.41
2019-01-16T21:25:20.158Z,53.33
2019-01-16T21:30:44.522Z,53.31
2019-01-16T21:36:08.438Z,53.39
2019-01-16T21:41:32.188Z,52.99
2019-01-16T21:46:47.650Z,53.81
2019-01-16T21:52:01.864Z,54.80
2019-01-16T21:57:28.997Z,54.41
2019-01-16T22:02:37.023Z,54.75
2019-01-16T22:07:46.745Z,54.04
2019-01-16T22:13:10.088Z,54.75
2019-01-16T22:18:20.664Z,54.34
2019-01-16T22:23:43.841Z,54.66
2019-01-16T22:28:58.499Z,55.19
2019-01-16T22:34:09.223Z,55.06
2019-01-16T22:39:32.060Z,55.92
2019-01-16T22:44:42.348Z,55.83
2019-01-16T22:49:55.812Z,56.67
2019-01-16T22:55:06.663Z,55.88
2019-01-16T23:00:19.743Z,55.86
2019-01-16T23:05:43.860Z,55.91
2019-01-16T23:11:00.086Z,55.50
2019-01-16T23:16:24.351Z,55.58
2019-01-16T23:21:43.866Z,55.81
2019-01-16T23:27:08.486Z,56.11
2019-01-16T23:32:25.138Z,56.03
2019-01-16T23:37:40.798Z,56.47
2019-01-16T23:43:05.928Z,56.49
2019-01-16T23:48:22.036Z,56.57
2019-01-16T23:53:32.589Z,55.92
2019-01-16T23:58:55.473Z,56.68
